createdAt,value
2017-07-26T00:00:37.606Z,0
2017-07-26T00:01:37.550Z,0
2017-07-26T00:02:37.754Z,0
2017-07-26T00:03:37.783Z,0
2017-07-26T00:04:37.804Z,0
2017-07-26T00:05:37.816Z,0
2017-07-26T00:06:37.843Z,0
2017-07-26T00:07:37.874Z,0
2017-07-26T00:08:37.984Z,0
2017-07-26T00:09:37.941Z,0
2017-07-26T00:10:37.619Z,0
2017-07-26T00:11:37.647Z,0
2017-07-26T00:12:37.916Z,0
2017-07-26T00:13:37.423Z,0
2017-07-26T00:14:38.050Z,0
2017-07-26T00:15:37.749Z,0
2017-07-26T00:16:38.080Z,0
2017-07-26T00:17:38.113Z,0
2017-07-26T00:18:38.135Z,0
2017-07-26T00:19:38.137Z,0
2017-07-26T00:20:38.161Z,0
2017-07-26T00:21:38.185Z,0
2017-07-26T00:22:38.223Z,0
2017-07-26T00:23:38.236Z,0
2017-07-26T00:24:37.986Z,0
2017-07-26T00:25:37.960Z,0
2017-07-26T00:26:38.302Z,0
2017-07-26T00:27:38.000Z,0
2017-07-26T00:28:38.034Z,0
2017-07-26T00:29:38.369Z,0
2017-07-26T00:30:38.396Z,0
2017-07-26T00:31:38.408Z,0
2017-07-26T00:32:38.228Z,0
2017-07-26T00:33:38.582Z,0
2017-07-26T00:34:38.157Z,0
2017-07-26T00:35:37.873Z,0
2017-07-26T00:36:38.388Z,0
2017-07-26T00:37:38.653Z,0
2017-07-26T00:38:38.352Z,0
2017-07-26T00:39:38.600Z,0
2017-07-26T00:40:37.663Z,0
2017-07-26T00:41:38.625Z,0
2017-07-26T00:42:38.456Z,0
2017-07-26T00:43:38.384Z,0
2017-07-26T00:44:38.891Z,0
2017-07-26T00:45:38.898Z,0
2017-07-26T00:46:38.909Z,0
2017-07-26T00:47:38.793Z,0
2017-07-26T00:48:38.800Z,0
2017-07-26T00:49:38.837Z,0
2017-07-26T00:50:38.223Z,0
2017-07-26T00:51:38.867Z,0
2017-07-26T00:52:38.899Z,0
2017-07-26T00:53:38.605Z,0
2017-07-26T00:54:38.630Z,0
2017-07-26T00:55:38.652Z,0
2017-07-26T00:56:38.985Z,0
2017-07-26T00:57:39.015Z,0
2017-07-26T00:58:38.713Z,0
2017-07-26T00:59:39.064Z,0
2017-07-26T01:00:39.070Z,0
2017-07-26T01:01:39.101Z,0
2017-07-26T01:02:38.489Z,0
2017-07-26T01:03:38.821Z,0
2017-07-26T01:04:39.289Z,0
2017-07-26T01:05:38.865Z,0
2017-07-26T01:06:39.207Z,0
2017-07-26T01:07:38.915Z,0
2017-07-26T01:08:38.935Z,0
2017-07-26T01:09:39.310Z,0
2017-07-26T01:10:39.295Z,0
2017-07-26T01:11:39.321Z,0
2017-07-26T01:12:39.039Z,0
2017-07-26T01:13:39.045Z,0
2017-07-26T01:14:39.385Z,0
2017-07-26T01:15:39.398Z,0
2017-07-26T01:16:39.123Z,0
2017-07-26T01:17:38.828Z,0
2017-07-26T01:18:39.487Z,0
2017-07-26T01:19:39.498Z,0
2017-07-26T01:20:39.320Z,0
2017-07-26T01:21:39.648Z,0
2017-07-26T01:22:39.350Z,0
2017-07-26T01:23:39.454Z,0
2017-07-26T01:24:39.612Z,0
2017-07-26T01:25:39.318Z,0
2017-07-26T01:26:39.760Z,0
2017-07-26T01:27:40.077Z,0
2017-07-26T01:28:39.383Z,0
2017-07-26T01:29:39.772Z,0
2017-07-26T01:30:39.429Z,0
2017-07-26T01:31:39.787Z,0
2017-07-26T01:32:39.868Z,0
2017-07-26T01:33:39.534Z,0
2017-07-26T01:34:39.837Z,0
2017-07-26T01:35:39.608Z,0
2017-07-26T01:36:39.554Z,0
2017-07-26T01:37:39.583Z,0
2017-07-26T01:38:39.605Z,0
2017-07-26T01:39:39.330Z,0
2017-07-26T01:40:39.644Z,0
2017-07-26T01:41:40.233Z,0
2017-07-26T01:42:39.738Z,0
2017-07-26T01:43:39.957Z,0
2017-07-26T01:44:40.239Z,0
2017-07-26T01:45:40.203Z,0
2017-07-26T01:46:39.870Z,0
2017-07-26T01:47:39.878Z,0
2017-07-26T01:48:40.003Z,0
2017-07-26T01:49:39.932Z,0
2017-07-26T01:50:39.963Z,0
2017-07-26T01:51:40.231Z,0
2017-07-26T01:52:40.229Z,0
2017-07-26T01:53:40.256Z,0
2017-07-26T01:54:40.457Z,0
2017-07-26T01:55:40.458Z,0
2017-07-26T01:56:39.681Z,0
2017-07-26T01:57:40.432Z,0
2017-07-26T01:58:40.457Z,0
2017-07-26T01:59:40.072Z,0
2017-07-26T02:00:39.777Z,0
2017-07-26T02:01:40.434Z,0
2017-07-26T02:02:40.193Z,0
2017-07-26T02:03:40.163Z,0
2017-07-26T02:04:40.184Z,0
2017-07-26T02:05:40.530Z,0
2017-07-26T02:06:40.238Z,0
2017-07-26T02:07:40.561Z,0
2017-07-26T02:08:40.263Z,0
2017-07-26T02:09:40.287Z,0
2017-07-26T02:10:40.326Z,0
2017-07-26T02:11:40.668Z,0
2017-07-26T02:12:40.672Z,0
2017-07-26T02:13:40.379Z,0
2017-07-26T02:14:40.838Z,0
2017-07-26T02:15:40.517Z,0
2017-07-26T02:16:40.583Z,0
2017-07-26T02:17:40.547Z,0
2017-07-26T02:18:40.870Z,0
2017-07-26T02:19:41.054Z,0
2017-07-26T02:20:40.859Z,0
2017-07-26T02:21:40.566Z,0
2017-07-26T02:22:40.581Z,0
2017-07-26T02:23:40.922Z,0
2017-07-26T02:24:40.646Z,0
2017-07-26T02:25:40.662Z,0
2017-07-26T02:26:40.674Z,0
2017-07-26T02:27:41.109Z,0
2017-07-26T02:28:41.161Z,0
2017-07-26T02:29:40.420Z,0
2017-07-26T02:30:40.756Z,0
2017-07-26T02:31:41.112Z,0
2017-07-26T02:32:41.632Z,0
2017-07-26T02:33:40.828Z,0
2017-07-26T02:34:41.164Z,0
2017-07-26T02:35:41.252Z,0
2017-07-26T02:36:41.201Z,0
2017-07-26T02:37:40.966Z,0
2017-07-26T02:38:41.246Z,0
2017-07-26T02:39:41.287Z,0
2017-07-26T02:40:41.295Z,0
2017-07-26T02:41:41.009Z,0
2017-07-26T02:42:41.343Z,0
2017-07-26T02:43:41.367Z,0
2017-07-26T02:44:41.067Z,0
2017-07-26T02:45:41.417Z,0
2017-07-26T02:46:41.424Z,0
2017-07-26T02:47:41.492Z,0
2017-07-26T02:48:41.473Z,0
2017-07-26T02:49:41.505Z,0
2017-07-26T02:50:40.570Z,0
2017-07-26T02:51:41.237Z,0
2017-07-26T02:52:41.567Z,0
2017-07-26T02:53:41.592Z,0
2017-07-26T02:54:41.176Z,0
2017-07-26T02:55:41.626Z,0
2017-07-26T02:56:41.646Z,0
2017-07-26T02:57:41.400Z,0
2017-07-26T02:58:41.388Z,0
2017-07-26T02:59:41.713Z,0
2017-07-26T03:00:41.736Z,0
2017-07-26T03:01:41.764Z,0
2017-07-26T03:02:41.325Z,0
2017-07-26T03:03:41.799Z,0
2017-07-26T03:04:41.832Z,0
2017-07-26T03:05:41.970Z,0
2017-07-26T03:06:41.236Z,0
2017-07-26T03:07:41.589Z,0
2017-07-26T03:08:41.281Z,0
2017-07-26T03:09:41.940Z,0
2017-07-26T03:10:41.966Z,0
2017-07-26T03:11:41.351Z,0
2017-07-26T03:12:41.693Z,0
2017-07-26T03:13:41.707Z,0
2017-07-26T03:14:41.730Z,0
2017-07-26T03:15:42.066Z,0
2017-07-26T03:16:41.783Z,0
2017-07-26T03:17:41.799Z,0
2017-07-26T03:18:41.838Z,0
2017-07-26T03:19:42.153Z,0
2017-07-26T03:20:41.871Z,0
2017-07-26T03:21:42.312Z,0
2017-07-26T03:22:41.921Z,0
2017-07-26T03:23:42.250Z,0
2017-07-26T03:24:41.955Z,0
2017-07-26T03:25:42.298Z,0
2017-07-26T03:26:41.993Z,0
2017-07-26T03:27:42.337Z,0
2017-07-26T03:28:42.525Z,0
2017-07-26T03:29:42.059Z,0
2017-07-26T03:30:42.107Z,0
2017-07-26T03:31:42.116Z,0
2017-07-26T03:32:42.669Z,0
2017-07-26T03:33:41.898Z,0
2017-07-26T03:34:41.927Z,0
2017-07-26T03:35:42.196Z,0
2017-07-26T03:36:42.763Z,0
2017-07-26T03:37:42.290Z,0
2017-07-26T03:38:42.579Z,0
2017-07-26T03:39:42.598Z,0
2017-07-26T03:40:42.300Z,0
2017-07-26T03:41:42.106Z,0
2017-07-26T03:42:42.670Z,0
2017-07-26T03:43:42.434Z,0
2017-07-26T03:44:42.710Z,0
2017-07-26T03:45:42.736Z,0
2017-07-26T03:46:42.762Z,0
2017-07-26T03:47:42.469Z,0
2017-07-26T03:48:42.488Z,0
2017-07-26T03:49:42.824Z,0
2017-07-26T03:50:42.526Z,0
2017-07-26T03:51:42.868Z,0
2017-07-26T03:52:43.163Z,0
2017-07-26T03:53:42.898Z,0
2017-07-26T03:54:43.159Z,0
2017-07-26T03:55:42.762Z,0
2017-07-26T03:56:43.074Z,0
2017-07-26T03:57:43.225Z,0
2017-07-26T03:58:42.880Z,0
2017-07-26T03:59:43.036Z,0
2017-07-26T04:00:43.225Z,0
2017-07-26T04:01:43.261Z,0
2017-07-26T04:02:43.238Z,0
2017-07-26T04:03:43.150Z,0
2017-07-26T04:04:43.162Z,0
2017-07-26T04:05:42.857Z,0
2017-07-26T04:06:43.193Z,0
2017-07-26T04:07:43.219Z,0
2017-07-26T04:08:43.243Z,0
2017-07-26T04:09:43.254Z,0
2017-07-26T04:10:43.279Z,0
2017-07-26T04:11:43.304Z,0
2017-07-26T04:12:43.013Z,0
2017-07-26T04:13:43.146Z,0
2017-07-26T04:14:43.075Z,0
2017-07-26T04:15:43.396Z,0
2017-07-26T04:16:43.409Z,0
2017-07-26T04:17:43.204Z,0
2017-07-26T04:18:43.230Z,0
2017-07-26T04:19:43.500Z,0
2017-07-26T04:20:42.858Z,0
2017-07-26T04:21:43.669Z,0
2017-07-26T04:22:43.650Z,5
2017-07-26T04:23:43.246Z,0
2017-07-26T04:24:43.593Z,0
2017-07-26T04:25:43.621Z,5
2017-07-26T04:26:43.636Z,0
2017-07-26T04:27:43.344Z,0
2017-07-26T04:28:43.354Z,0
2017-07-26T04:29:43.187Z,0
2017-07-26T04:30:43.407Z,0
2017-07-26T04:31:43.235Z,0
2017-07-26T04:32:43.461Z,0
2017-07-26T04:33:43.479Z,0
2017-07-26T04:34:43.492Z,5
2017-07-26T04:35:43.830Z,5
2017-07-26T04:36:43.855Z,5
2017-07-26T04:37:43.899Z,5
2017-07-26T04:38:43.905Z,5
2017-07-26T04:39:43.926Z,5
2017-07-26T04:40:43.947Z,5
2017-07-26T04:41:43.957Z,5
2017-07-26T04:42:43.384Z,5
2017-07-26T04:43:43.689Z,0
2017-07-26T04:44:44.026Z,5
2017-07-26T04:45:44.060Z,5
2017-07-26T04:46:43.452Z,5
2017-07-26T04:47:43.460Z,0
2017-07-26T04:48:43.476Z,0
2017-07-26T04:49:44.163Z,0
2017-07-26T04:50:43.528Z,0
2017-07-26T04:51:43.867Z,0
2017-07-26T04:52:43.575Z,0
2017-07-26T04:53:44.221Z,0
2017-07-26T04:54:43.613Z,5
2017-07-26T04:55:43.953Z,5
2017-07-26T04:56:43.992Z,0
2017-07-26T04:57:44.006Z,0
2017-07-26T04:58:44.338Z,5
2017-07-26T04:59:44.377Z,5
2017-07-26T05:00:44.373Z,5
2017-07-26T05:01:44.417Z,5
2017-07-26T05:02:44.107Z,5
2017-07-26T05:03:44.450Z,5
2017-07-26T05:04:44.472Z,5
2017-07-26T05:05:44.494Z,5
2017-07-26T05:06:44.210Z,0
2017-07-26T05:07:44.223Z,0
2017-07-26T05:08:44.237Z,0
2017-07-26T05:09:44.580Z,0
2017-07-26T05:10:44.601Z,0
2017-07-26T05:11:44.628Z,5
2017-07-26T05:12:44.649Z,5
2017-07-26T05:13:44.675Z,5
2017-07-26T05:14:44.372Z,5
2017-07-26T05:15:44.718Z,10
2017-07-26T05:16:44.734Z,5
2017-07-26T05:17:44.758Z,5
2017-07-26T05:18:44.464Z,5
2017-07-26T05:19:44.799Z,5
2017-07-26T05:20:44.524Z,10
2017-07-26T05:21:44.854Z,10
2017-07-26T05:22:44.691Z,10
2017-07-26T05:23:44.884Z,10
2017-07-26T05:24:44.914Z,10
2017-07-26T05:25:44.934Z,10
2017-07-26T05:26:44.958Z,15
2017-07-26T05:27:44.983Z,15
2017-07-26T05:28:45.106Z,10
2017-07-26T05:29:45.107Z,15
2017-07-26T05:30:45.070Z,15
2017-07-26T05:31:44.752Z,15
2017-07-26T05:32:44.776Z,15
2017-07-26T05:33:44.869Z,15
2017-07-26T05:34:44.556Z,15
2017-07-26T05:35:45.284Z,20
2017-07-26T05:36:45.268Z,20
2017-07-26T05:37:45.265Z,15
2017-07-26T05:38:45.345Z,15
2017-07-26T05:39:44.933Z,15
2017-07-26T05:40:45.279Z,10
2017-07-26T05:41:44.970Z,15
2017-07-26T05:42:45.163Z,15
2017-07-26T05:43:45.022Z,15
2017-07-26T05:44:45.552Z,15
2017-07-26T05:45:45.562Z,15
2017-07-26T05:46:45.605Z,10
2017-07-26T05:47:45.120Z,10
2017-07-26T05:48:45.454Z,10
2017-07-26T05:49:45.470Z,10
2017-07-26T05:50:45.177Z,10
2017-07-26T05:51:45.519Z,15
2017-07-26T05:52:45.215Z,15
2017-07-26T05:53:45.329Z,15
2017-07-26T05:54:45.301Z,10
2017-07-26T05:55:45.833Z,10
2017-07-26T05:56:45.624Z,10
2017-07-26T05:57:45.762Z,10
2017-07-26T05:58:45.572Z,20
2017-07-26T05:59:45.761Z,20
2017-07-26T06:00:45.725Z,25
2017-07-26T06:01:45.725Z,25
2017-07-26T06:02:45.755Z,25
2017-07-26T06:03:45.474Z,25
2017-07-26T06:04:45.583Z,25
2017-07-26T06:05:45.997Z,30
2017-07-26T06:06:45.294Z,25
2017-07-26T06:07:45.736Z,30
2017-07-26T06:08:45.655Z,30
2017-07-26T06:09:46.222Z,30
2017-07-26T06:10:45.609Z,25
2017-07-26T06:11:45.951Z,25
2017-07-26T06:12:46.118Z,30
2017-07-26T06:13:46.064Z,30
2017-07-26T06:14:46.017Z,35
2017-07-26T06:15:45.790Z,35
2017-07-26T06:16:46.074Z,40
2017-07-26T06:17:46.093Z,40
2017-07-26T06:18:46.110Z,40
2017-07-26T06:19:46.135Z,40
2017-07-26T06:20:46.160Z,40
2017-07-26T06:21:45.637Z,40
2017-07-26T06:22:46.288Z,40
2017-07-26T06:23:45.900Z,40
2017-07-26T06:24:46.236Z,40
2017-07-26T06:25:46.284Z,40
2017-07-26T06:26:46.502Z,35
2017-07-26T06:27:46.508Z,35
2017-07-26T06:28:46.514Z,30
2017-07-26T06:29:46.513Z,30
2017-07-26T06:30:46.186Z,25
2017-07-26T06:31:46.407Z,25
2017-07-26T06:32:46.426Z,25
2017-07-26T06:33:46.448Z,20
2017-07-26T06:34:46.474Z,20
2017-07-26T06:35:46.510Z,15
2017-07-26T06:36:46.329Z,15
2017-07-26T06:37:45.918Z,20
2017-07-26T06:38:46.570Z,20
2017-07-26T06:39:46.635Z,15
2017-07-26T06:40:46.447Z,20
2017-07-26T06:41:46.310Z,20
2017-07-26T06:42:46.658Z,20
2017-07-26T06:43:46.882Z,20
2017-07-26T06:44:46.824Z,15
2017-07-26T06:45:46.411Z,15
2017-07-26T06:46:46.937Z,15
2017-07-26T06:47:46.128Z,15
2017-07-26T06:48:46.792Z,15
2017-07-26T06:49:46.818Z,10
2017-07-26T06:50:46.845Z,10
2017-07-26T06:51:46.537Z,10
2017-07-26T06:52:46.252Z,10
2017-07-26T06:53:46.897Z,15
2017-07-26T06:54:47.040Z,25
2017-07-26T06:55:47.049Z,30
2017-07-26T06:56:46.652Z,30
2017-07-26T06:57:46.741Z,20
2017-07-26T06:58:47.063Z,15
2017-07-26T06:59:47.066Z,10
2017-07-26T07:00:46.862Z,10
2017-07-26T07:01:46.884Z,5
2017-07-26T07:02:47.522Z,10
2017-07-26T07:03:46.829Z,15
2017-07-26T07:04:47.162Z,20
2017-07-26T07:05:46.859Z,15
2017-07-26T07:06:46.883Z,20
2017-07-26T07:07:46.896Z,25
2017-07-26T07:08:47.259Z,30
2017-07-26T07:09:47.069Z,40
2017-07-26T07:10:46.338Z,45
2017-07-26T07:11:47.408Z,50
2017-07-26T07:12:47.025Z,60
2017-07-26T07:13:47.359Z,60
2017-07-26T07:14:47.412Z,55
2017-07-26T07:15:47.413Z,50
2017-07-26T07:16:47.540Z,50
2017-07-26T07:17:47.205Z,40
2017-07-26T07:18:46.838Z,25
2017-07-26T07:19:47.563Z,20
2017-07-26T07:20:47.203Z,25
2017-07-26T07:21:47.542Z,30
2017-07-26T07:22:46.927Z,40
2017-07-26T07:23:47.269Z,40
2017-07-26T07:24:47.613Z,45
2017-07-26T07:25:47.627Z,45
2017-07-26T07:26:47.553Z,45
2017-07-26T07:27:47.047Z,45
2017-07-26T07:28:47.090Z,40
2017-07-26T07:29:47.736Z,35
2017-07-26T07:30:47.108Z,30
2017-07-26T07:31:48.004Z,25
2017-07-26T07:32:47.477Z,35
2017-07-26T07:33:48.018Z,35
2017-07-26T07:34:47.697Z,40
2017-07-26T07:35:48.020Z,35
2017-07-26T07:36:47.576Z,25
2017-07-26T07:37:47.583Z,20
2017-07-26T07:38:47.713Z,20
2017-07-26T07:39:48.088Z,20
2017-07-26T07:40:48.221Z,15
2017-07-26T07:41:47.770Z,15
2017-07-26T07:42:48.146Z,20
2017-07-26T07:43:48.114Z,20
2017-07-26T07:44:48.080Z,20
2017-07-26T07:45:47.150Z,15
2017-07-26T07:46:48.114Z,15
2017-07-26T07:47:47.829Z,10
2017-07-26T07:48:48.170Z,15
2017-07-26T07:49:48.185Z,20
2017-07-26T07:50:47.706Z,25
2017-07-26T07:51:48.045Z,30
2017-07-26T07:52:48.402Z,25
2017-07-26T07:53:47.641Z,25
2017-07-26T07:54:48.325Z,20
2017-07-26T07:55:48.008Z,20
2017-07-26T07:56:48.378Z,20
2017-07-26T07:57:48.465Z,25
2017-07-26T07:58:48.079Z,20
2017-07-26T07:59:48.426Z,20
2017-07-26T08:00:48.437Z,25
2017-07-26T08:01:47.834Z,25
2017-07-26T08:02:48.753Z,20
2017-07-26T08:03:47.889Z,20
2017-07-26T08:04:48.591Z,20
2017-07-26T08:05:48.264Z,20
2017-07-26T08:06:48.267Z,20
2017-07-26T08:07:48.283Z,20
2017-07-26T08:08:48.410Z,20
2017-07-26T08:09:48.338Z,20
2017-07-26T08:10:48.804Z,20
2017-07-26T08:11:48.694Z,25
2017-07-26T08:12:48.526Z,30
2017-07-26T08:13:48.547Z,30
2017-07-26T08:14:48.129Z,30
2017-07-26T08:15:48.167Z,30
2017-07-26T08:16:48.258Z,30
2017-07-26T08:17:48.862Z,25
2017-07-26T08:18:48.864Z,25
2017-07-26T08:19:48.931Z,20
2017-07-26T08:20:48.398Z,20
2017-07-26T08:21:49.062Z,20
2017-07-26T08:22:48.483Z,20
2017-07-26T08:23:48.821Z,20
2017-07-26T08:24:48.729Z,20
2017-07-26T08:25:49.025Z,25
2017-07-26T08:26:49.049Z,30
2017-07-26T08:27:49.313Z,30
2017-07-26T08:28:49.100Z,35
2017-07-26T08:29:49.130Z,40
2017-07-26T08:30:49.155Z,40
2017-07-26T08:31:49.175Z,40
2017-07-26T08:32:49.195Z,30
2017-07-26T08:33:49.393Z,25
2017-07-26T08:34:49.234Z,25
2017-07-26T08:35:49.358Z,20
2017-07-26T08:36:49.398Z,25
2017-07-26T08:37:49.309Z,25
2017-07-26T08:38:48.814Z,25
2017-07-26T08:39:49.483Z,20
2017-07-26T08:40:49.381Z,20
2017-07-26T08:41:49.121Z,15
2017-07-26T08:42:49.119Z,15
2017-07-26T08:43:49.450Z,15
2017-07-26T08:44:48.528Z,15
2017-07-26T08:45:48.985Z,20
2017-07-26T08:46:49.523Z,20
2017-07-26T08:47:49.204Z,20
2017-07-26T08:48:49.300Z,20
2017-07-26T08:49:49.593Z,20
2017-07-26T08:50:49.005Z,20
2017-07-26T08:51:49.636Z,20
2017-07-26T08:52:49.339Z,20
2017-07-26T08:53:49.382Z,25
2017-07-26T08:54:49.655Z,20
2017-07-26T08:55:49.730Z,25
2017-07-26T08:56:49.766Z,25
2017-07-26T08:57:49.792Z,25
2017-07-26T08:58:49.804Z,25
2017-07-26T08:59:49.828Z,20
2017-07-26T09:00:49.219Z,20
2017-07-26T09:01:49.875Z,20
2017-07-26T09:02:50.108Z,20
2017-07-26T09:03:49.648Z,20
2017-07-26T09:04:49.948Z,25
2017-07-26T09:05:49.980Z,25
2017-07-26T09:06:49.996Z,25
2017-07-26T09:07:50.030Z,25
2017-07-26T09:08:50.057Z,20
2017-07-26T09:09:50.068Z,20
2017-07-26T09:10:50.087Z,20
2017-07-26T09:11:50.235Z,20
2017-07-26T09:12:50.135Z,15
2017-07-26T09:13:50.337Z,15
2017-07-26T09:14:50.184Z,15
2017-07-26T09:15:50.200Z,15
2017-07-26T09:16:49.318Z,15
2017-07-26T09:17:50.334Z,10
2017-07-26T09:18:49.991Z,15
2017-07-26T09:19:50.073Z,15
2017-07-26T09:20:50.317Z,15
2017-07-26T09:21:50.438Z,15
2017-07-26T09:22:50.476Z,20
2017-07-26T09:23:50.307Z,20
2017-07-26T09:24:50.424Z,20
2017-07-26T09:25:50.514Z,20
2017-07-26T09:26:50.148Z,20
2017-07-26T09:27:50.173Z,15
2017-07-26T09:28:50.401Z,15
2017-07-26T09:29:50.542Z,10
2017-07-26T09:30:49.918Z,10
2017-07-26T09:31:50.701Z,10
2017-07-26T09:32:50.342Z,10
2017-07-26T09:33:50.823Z,10
2017-07-26T09:34:50.850Z,10
2017-07-26T09:35:50.686Z,10
2017-07-26T09:36:50.484Z,15
2017-07-26T09:37:50.742Z,10
2017-07-26T09:38:50.778Z,10
2017-07-26T09:39:50.462Z,10
2017-07-26T09:40:50.785Z,15
2017-07-26T09:41:50.622Z,30
2017-07-26T09:42:50.879Z,15
2017-07-26T09:43:50.921Z,15
2017-07-26T09:44:50.391Z,15
2017-07-26T09:45:51.071Z,15
2017-07-26T09:46:50.888Z,15
2017-07-26T09:47:51.032Z,30
2017-07-26T09:48:51.086Z,30
2017-07-26T09:49:51.202Z,25
2017-07-26T09:50:50.723Z,30
2017-07-26T09:51:51.046Z,25
2017-07-26T09:52:51.193Z,10
2017-07-26T09:53:51.145Z,10
2017-07-26T09:54:51.231Z,20
2017-07-26T09:55:50.539Z,30
2017-07-26T09:56:50.916Z,25
2017-07-26T09:57:51.197Z,25
2017-07-26T09:58:50.900Z,40
2017-07-26T09:59:51.365Z,25
2017-07-26T10:00:51.051Z,15
2017-07-26T10:01:51.060Z,15
2017-07-26T10:02:51.166Z,20
2017-07-26T10:03:51.391Z,40
2017-07-26T10:04:51.352Z,35
2017-07-26T10:05:51.467Z,15
2017-07-26T10:06:50.863Z,15
2017-07-26T10:07:50.873Z,15
2017-07-26T10:08:51.669Z,20
2017-07-26T10:09:51.697Z,20
2017-07-26T10:10:51.677Z,15
2017-07-26T10:11:51.234Z,10
2017-07-26T10:12:50.596Z,10
2017-07-26T10:13:51.357Z,20
2017-07-26T10:14:51.266Z,20
2017-07-26T10:15:51.432Z,20
2017-07-26T10:16:51.446Z,10
2017-07-26T10:17:51.428Z,15
2017-07-26T10:18:51.845Z,20
2017-07-26T10:19:51.729Z,10
2017-07-26T10:20:51.735Z,15
2017-07-26T10:21:51.763Z,10
2017-07-26T10:22:51.450Z,15
2017-07-26T10:23:51.911Z,20
2017-07-26T10:24:51.829Z,15
2017-07-26T10:25:51.989Z,25
2017-07-26T10:26:51.558Z,10
2017-07-26T10:27:51.894Z,10
2017-07-26T10:28:51.619Z,10
2017-07-26T10:29:51.938Z,20
2017-07-26T10:30:52.112Z,35
2017-07-26T10:31:52.135Z,30
2017-07-26T10:32:51.828Z,20
2017-07-26T10:33:52.022Z,10
2017-07-26T10:34:52.054Z,15
2017-07-26T10:35:52.087Z,15
2017-07-26T10:36:52.164Z,30
2017-07-26T10:37:52.118Z,20
2017-07-26T10:38:51.847Z,15
2017-07-26T10:39:52.192Z,35
2017-07-26T10:40:51.886Z,30
2017-07-26T10:41:52.242Z,30
2017-07-26T10:42:51.612Z,35
2017-07-26T10:43:52.216Z,35
2017-07-26T10:44:51.976Z,35
2017-07-26T10:45:52.320Z,35
2017-07-26T10:46:52.321Z,45
2017-07-26T10:47:52.366Z,50
2017-07-26T10:48:51.759Z,25
2017-07-26T10:49:52.396Z,35
2017-07-26T10:50:52.437Z,35
2017-07-26T10:51:52.446Z,30
2017-07-26T10:52:52.325Z,30
2017-07-26T10:53:52.185Z,40
2017-07-26T10:54:52.425Z,45
2017-07-26T10:55:52.731Z,35
2017-07-26T10:56:52.503Z,45
2017-07-26T10:57:52.780Z,45
2017-07-26T10:58:52.300Z,45
2017-07-26T10:59:52.001Z,30
2017-07-26T11:00:52.662Z,45
2017-07-26T11:01:52.683Z,40
2017-07-26T11:02:52.712Z,25
2017-07-26T11:03:52.793Z,15
2017-07-26T11:04:52.752Z,25
2017-07-26T11:05:52.811Z,35
2017-07-26T11:06:52.802Z,40
2017-07-26T11:07:52.824Z,45
2017-07-26T11:08:52.533Z,50
2017-07-26T11:09:52.867Z,30
2017-07-26T11:10:52.898Z,30
2017-07-26T11:11:52.917Z,30
2017-07-26T11:12:52.623Z,40
2017-07-26T11:13:52.654Z,25
2017-07-26T11:14:53.087Z,30
2017-07-26T11:15:53.114Z,15
2017-07-26T11:16:52.394Z,15
2017-07-26T11:17:52.422Z,20
2017-07-26T11:18:52.442Z,25
2017-07-26T11:19:52.785Z,35
2017-07-26T11:20:52.845Z,25
2017-07-26T11:21:53.255Z,30
2017-07-26T11:22:52.851Z,25
2017-07-26T11:23:53.206Z,30
2017-07-26T11:24:53.223Z,25
2017-07-26T11:25:53.246Z,25
2017-07-26T11:26:52.951Z,25
2017-07-26T11:27:53.375Z,25
2017-07-26T11:28:53.170Z,20
2017-07-26T11:29:53.390Z,25
2017-07-26T11:30:53.384Z,30
2017-07-26T11:31:53.393Z,20
2017-07-26T11:32:53.418Z,25
2017-07-26T11:33:53.437Z,15
2017-07-26T11:34:53.457Z,20
2017-07-26T11:35:53.499Z,20
2017-07-26T11:36:53.500Z,25
2017-07-26T11:37:52.894Z,20
2017-07-26T11:38:53.544Z,20
2017-07-26T11:39:53.574Z,15
2017-07-26T11:40:53.604Z,15
2017-07-26T11:41:53.623Z,15
2017-07-26T11:42:53.011Z,15
2017-07-26T11:43:53.668Z,10
2017-07-26T11:44:53.711Z,10
2017-07-26T11:45:53.084Z,15
2017-07-26T11:46:53.421Z,15
2017-07-26T11:47:53.448Z,20
2017-07-26T11:48:53.781Z,25
2017-07-26T11:49:53.492Z,20
2017-07-26T11:50:53.832Z,20
2017-07-26T11:51:53.544Z,15
2017-07-26T11:52:53.665Z,25
2017-07-26T11:53:53.901Z,20
2017-07-26T11:54:53.935Z,25
2017-07-26T11:55:53.962Z,20
2017-07-26T11:56:53.979Z,20
2017-07-26T11:57:53.677Z,15
2017-07-26T11:58:54.009Z,25
2017-07-26T11:59:53.730Z,30
2017-07-26T12:00:53.754Z,35
2017-07-26T12:01:53.461Z,20
2017-07-26T12:02:53.797Z,15
2017-07-26T12:03:54.140Z,15
2017-07-26T12:04:54.152Z,20
2017-07-26T12:05:54.198Z,20
2017-07-26T12:06:54.409Z,20
2017-07-26T12:07:54.231Z,25
2017-07-26T12:08:54.252Z,15
2017-07-26T12:09:54.272Z,25
2017-07-26T12:10:53.980Z,15
2017-07-26T12:11:54.004Z,20
2017-07-26T12:12:53.398Z,30
2017-07-26T12:13:54.363Z,15
2017-07-26T12:14:54.068Z,15
2017-07-26T12:15:54.414Z,15
2017-07-26T12:16:54.443Z,25
2017-07-26T12:17:54.460Z,25
2017-07-26T12:18:54.163Z,30
2017-07-26T12:19:54.512Z,25
2017-07-26T12:20:54.547Z,30
2017-07-26T12:21:54.249Z,40
2017-07-26T12:22:54.578Z,35
2017-07-26T12:23:54.606Z,20
2017-07-26T12:24:54.632Z,30
2017-07-26T12:25:54.338Z,25
2017-07-26T12:26:54.672Z,35
2017-07-26T12:27:54.729Z,30
2017-07-26T12:28:54.722Z,45
2017-07-26T12:29:54.419Z,40
2017-07-26T12:30:54.458Z,30
2017-07-26T12:31:54.793Z,30
2017-07-26T12:32:54.192Z,30
2017-07-26T12:33:54.837Z,35
2017-07-26T12:34:54.846Z,35
2017-07-26T12:35:54.877Z,30
2017-07-26T12:36:54.898Z,30
2017-07-26T12:37:54.929Z,35
2017-07-26T12:38:54.720Z,25
2017-07-26T12:39:55.064Z,30
2017-07-26T12:40:54.688Z,30
2017-07-26T12:41:55.023Z,35
2017-07-26T12:42:55.069Z,35
2017-07-26T12:43:54.747Z,30
2017-07-26T12:44:55.092Z,30
2017-07-26T12:45:55.121Z,30
2017-07-26T12:46:55.132Z,20
2017-07-26T12:47:55.170Z,30
2017-07-26T12:48:55.314Z,30
2017-07-26T12:49:55.199Z,25
2017-07-26T12:50:55.224Z,20
2017-07-26T12:51:55.035Z,20
2017-07-26T12:52:55.369Z,15
2017-07-26T12:53:55.080Z,15
2017-07-26T12:54:55.527Z,20
2017-07-26T12:55:55.349Z,15
2017-07-26T12:56:55.447Z,10
2017-07-26T12:57:55.392Z,10
2017-07-26T12:58:55.102Z,10
2017-07-26T12:59:55.121Z,15
2017-07-26T13:00:55.476Z,20
2017-07-26T13:01:55.177Z,20
2017-07-26T13:02:55.507Z,30
2017-07-26T13:03:55.532Z,25
2017-07-26T13:04:54.920Z,25
2017-07-26T13:05:55.591Z,25
2017-07-26T13:06:55.604Z,10
2017-07-26T13:07:55.302Z,15
2017-07-26T13:08:55.329Z,15
2017-07-26T13:09:55.792Z,10
2017-07-26T13:10:55.078Z,15
2017-07-26T13:11:55.402Z,25
2017-07-26T13:12:55.746Z,20
2017-07-26T13:13:55.769Z,10
2017-07-26T13:14:55.802Z,15
2017-07-26T13:15:55.508Z,25
2017-07-26T13:16:55.833Z,20
2017-07-26T13:17:55.220Z,20
2017-07-26T13:18:55.671Z,20
2017-07-26T13:19:55.600Z,25
2017-07-26T13:20:56.056Z,10
2017-07-26T13:21:55.948Z,15
2017-07-26T13:22:55.662Z,15
2017-07-26T13:23:55.968Z,10
2017-07-26T13:24:55.687Z,25
2017-07-26T13:25:55.153Z,25
2017-07-26T13:26:56.048Z,10
2017-07-26T13:27:55.767Z,25
2017-07-26T13:28:56.109Z,25
2017-07-26T13:29:55.823Z,25
2017-07-26T13:30:56.155Z,25
2017-07-26T13:31:56.188Z,25
2017-07-26T13:32:56.202Z,25
2017-07-26T13:33:56.456Z,15
2017-07-26T13:34:56.449Z,25
2017-07-26T13:35:56.404Z,30
2017-07-26T13:36:56.194Z,25
2017-07-26T13:37:56.621Z,15
2017-07-26T13:38:56.198Z,30
2017-07-26T13:39:56.382Z,30
2017-07-26T13:40:56.398Z,30
2017-07-26T13:41:56.446Z,30
2017-07-26T13:42:56.438Z,20
2017-07-26T13:43:56.463Z,15
2017-07-26T13:44:56.509Z,15
2017-07-26T13:45:56.508Z,15
2017-07-26T13:46:56.550Z,15
2017-07-26T13:47:56.256Z,15
2017-07-26T13:48:56.261Z,15
2017-07-26T13:49:56.776Z,15
2017-07-26T13:50:56.621Z,10
2017-07-26T13:51:56.761Z,15
2017-07-26T13:52:56.567Z,15
2017-07-26T13:53:56.720Z,15
2017-07-26T13:54:56.119Z,20
2017-07-26T13:55:56.888Z,20
2017-07-26T13:56:56.597Z,20
2017-07-26T13:57:57.084Z,20
2017-07-26T13:58:56.820Z,5
2017-07-26T13:59:56.720Z,10
2017-07-26T14:00:56.430Z,5
2017-07-26T14:01:56.995Z,5
2017-07-26T14:02:56.943Z,5
2017-07-26T14:03:57.055Z,5
2017-07-26T14:04:57.023Z,5
2017-07-26T14:05:57.051Z,5
2017-07-26T14:06:56.464Z,5
2017-07-26T14:07:57.018Z,5
2017-07-26T14:08:57.087Z,5
2017-07-26T14:09:57.173Z,10
2017-07-26T14:10:57.087Z,10
2017-07-26T14:11:56.788Z,10
2017-07-26T14:12:56.818Z,15
2017-07-26T14:13:56.519Z,15
2017-07-26T14:14:57.179Z,10
2017-07-26T14:15:56.718Z,10
2017-07-26T14:16:57.224Z,5
2017-07-26T14:17:57.413Z,10
2017-07-26T14:18:57.554Z,10
2017-07-26T14:19:56.971Z,0
2017-07-26T14:20:57.428Z,0
2017-07-26T14:21:57.065Z,0
2017-07-26T14:22:57.358Z,0
2017-07-26T14:23:57.452Z,0
2017-07-26T14:24:57.404Z,5
2017-07-26T14:25:56.830Z,0
2017-07-26T14:26:57.143Z,0
2017-07-26T14:27:57.170Z,0